메인 페이지
METAR-TAF:

METAR-TAF

공항 :

Meridian Regional Airport (Key Field)

머리디언, 미시시피, 미국

위도: 32-20-17N, 경도: 088-44-52W, 고도: 90m

현재 날씨관측

예보는 41분 전, 18:58시(UTC)에 발표되었습니다.
7kt남서풍과 북서풍을 오가는
온도 23°C
습도 33%
기압 1013 hPa
시정: 16.1km
맑음

METAR: KMEI 191858Z 27007KT 230V310 10SM CLR 23/06 A2991 RMK AO2 SLP129 I1000 T02330056

시각: 13:39 (19:39 UTC)

예보

예보는 1 시간 59분 전, 17:40시(UTC)에 발표되었습니다.
예보 대상 시간: 19일 18시부터 20일 18시까지 (UTC)
8kt
시정: 10km
맑음

TAF: KMEI 191740Z 1918/2018 27008KT P6SM SKC

4,000개 이상의 공항 관측 자료 및 예보 (METAR 및 TAF 보고).

지도상에서 검색 가능한 기상관측소가 노란 점과 빨간 점으로 표시되어 있습니다.

기상관측소 명을 보려면 표시 위로 마우스를 이동하세요.

날씨 관측과 예보를 보려면 클릭하세요.

지도 변경 : 확대하려면 엑스 표시가 있는 녹색 버튼, 축소하려면 빼기 표시가 있는 녹색 버튼, 다음 페이지의 지도를 보려면 녹색 화살표를 클릭하세요.


METAR-TAF: